BAW8648 LIRN-LIRA
Flight info
| Callsign | BAW8648 |
|---|---|
| Flight time | 0h 35m |
| Altitude | 20000 |
| Route | SIPRO1N SIPRO DCT INSOX DCT ALAXI ALAXI2F |
| Aircraft | A320/M-SDE3FGIJ1KRWXY/SB1 |
Departure
| Time | 2026-04-29 19:39 |
|---|---|
| Airport | Naples International Airport (LIRN) |
Arrival
| Time | 2026-04-29 20:15 |
|---|---|
| Airport | Ciampino–G. B. Pastine International Airport (LIRA) |
| Time | Latitude | Longitude | Altitude | Speed | Heading |
|---|---|---|---|---|---|
| 2026-04-29 19:08 | 40.87774 | 14.28010 | 303 ft | 0 kts | 141° |
| 2026-04-29 19:29 | 40.87785 | 14.27999 | 305 ft | 4 kts | 141° |
| 2026-04-29 19:29 | 40.87802 | 14.27979 | 306 ft | 4 kts | 120° |
| 2026-04-29 19:29 | 40.87807 | 14.27950 | 306 ft | 4 kts | 66° |
| 2026-04-29 19:29 | 40.87791 | 14.27928 | 308 ft | 4 kts | 7° |
| 2026-04-29 19:30 | 40.87776 | 14.27928 | 308 ft | 1 kts | 353° |
| 2026-04-29 19:32 | 40.87788 | 14.27926 | 306 ft | 3 kts | 353° |
| 2026-04-29 19:32 | 40.87822 | 14.27922 | 307 ft | 6 kts | 360° |
| 2026-04-29 19:33 | 40.87863 | 14.27965 | 304 ft | 10 kts | 50° |
| 2026-04-29 19:33 | 40.87916 | 14.28051 | 302 ft | 12 kts | 51° |
| 2026-04-29 19:33 | 40.87971 | 14.28115 | 299 ft | 12 kts | 20° |
| 2026-04-29 19:33 | 40.88033 | 14.28165 | 298 ft | 12 kts | 53° |
| 2026-04-29 19:34 | 40.88067 | 14.28269 | 291 ft | 12 kts | 96° |
| 2026-04-29 19:34 | 40.88055 | 14.28398 | 288 ft | 16 kts | 97° |
| 2026-04-29 19:34 | 40.88042 | 14.28539 | 286 ft | 13 kts | 98° |
| 2026-04-29 19:34 | 40.88066 | 14.28642 | 287 ft | 14 kts | 52° |
| 2026-04-29 19:35 | 40.88133 | 14.28759 | 284 ft | 18 kts | 53° |
| 2026-04-29 19:35 | 40.88216 | 14.28902 | 282 ft | 22 kts | 52° |
| 2026-04-29 19:35 | 40.88318 | 14.29079 | 276 ft | 25 kts | 52° |
| 2026-04-29 19:35 | 40.88419 | 14.29254 | 263 ft | 22 kts | 52° |
| 2026-04-29 19:36 | 40.88508 | 14.29408 | 258 ft | 23 kts | 53° |
| 2026-04-29 19:36 | 40.88615 | 14.29593 | 251 ft | 26 kts | 52° |
| 2026-04-29 19:36 | 40.88711 | 14.29759 | 246 ft | 20 kts | 52° |
| 2026-04-29 19:36 | 40.88805 | 14.29921 | 242 ft | 24 kts | 52° |
| 2026-04-29 19:37 | 40.88915 | 14.30112 | 235 ft | 29 kts | 52° |
| 2026-04-29 19:37 | 40.88955 | 14.30181 | 235 ft | 26 kts | 53° |
| 2026-04-29 19:37 | 40.89088 | 14.30411 | 224 ft | 13 kts | 52° |
| 2026-04-29 19:37 | 40.89158 | 14.30453 | 223 ft | 12 kts | 350° |
| 2026-04-29 19:38 | 40.89203 | 14.30423 | 223 ft | 9 kts | 329° |
| 2026-04-29 19:38 | 40.89222 | 14.30396 | 223 ft | 2 kts | 283° |
| 2026-04-29 19:38 | 40.89219 | 14.30383 | 226 ft | 1 kts | 255° |
| 2026-04-29 19:38 | 40.89183 | 14.30302 | 227 ft | 34 kts | 238° |
| 2026-04-29 19:39 | 40.88935 | 14.29779 | 250 ft | 97 kts | 238° |
| 2026-04-29 19:39 | 40.88492 | 14.28841 | 282 ft | 140 kts | 238° |
| 2026-04-29 19:39 | 40.87946 | 14.27695 | 692 ft | 145 kts | 240° |
| 2026-04-29 19:39 | 40.87658 | 14.26454 | 1267 ft | 142 kts | 272° |
| 2026-04-29 19:40 | 40.87952 | 14.25214 | 1663 ft | 149 kts | 299° |
| 2026-04-29 19:40 | 40.88474 | 14.23974 | 1997 ft | 162 kts | 298° |
| 2026-04-29 19:40 | 40.89041 | 14.22564 | 2268 ft | 186 kts | 297° |
| 2026-04-29 19:40 | 40.89678 | 14.20962 | 2646 ft | 206 kts | 297° |
| 2026-04-29 19:41 | 40.90360 | 14.19257 | 3307 ft | 213 kts | 298° |
| 2026-04-29 19:41 | 40.91058 | 14.17512 | 4059 ft | 217 kts | 297° |
| 2026-04-29 19:41 | 40.91767 | 14.15736 | 4825 ft | 220 kts | 297° |
| 2026-04-29 19:41 | 40.92551 | 14.13955 | 5498 ft | 228 kts | 308° |
| 2026-04-29 19:42 | 40.93766 | 14.12593 | 6232 ft | 235 kts | 331° |
| 2026-04-29 19:42 | 40.94807 | 14.12057 | 6477 ft | 252 kts | 347° |
| 2026-04-29 19:42 | 40.97279 | 14.11669 | 7090 ft | 278 kts | 353° |
| 2026-04-29 19:42 | 40.99230 | 14.11408 | 7853 ft | 285 kts | 353° |
| 2026-04-29 19:43 | 41.01214 | 14.11139 | 8667 ft | 289 kts | 353° |
| 2026-04-29 19:43 | 41.03224 | 14.10864 | 9473 ft | 292 kts | 353° |
| 2026-04-29 19:43 | 41.05255 | 14.10578 | 10266 ft | 295 kts | 352° |
| 2026-04-29 19:43 | 41.07325 | 14.10284 | 10853 ft | 307 kts | 352° |
| 2026-04-29 19:44 | 41.09530 | 14.09966 | 11016 ft | 331 kts | 352° |
| 2026-04-29 19:44 | 41.11866 | 14.09625 | 11064 ft | 342 kts | 352° |
| 2026-04-29 19:44 | 41.14243 | 14.09280 | 11061 ft | 344 kts | 352° |
| 2026-04-29 19:44 | 41.16622 | 14.08911 | 11066 ft | 344 kts | 349° |
| 2026-04-29 19:45 | 41.18922 | 14.08077 | 11062 ft | 343 kts | 337° |
| 2026-04-29 19:45 | 41.21035 | 14.06644 | 11066 ft | 341 kts | 325° |
| 2026-04-29 19:45 | 41.22898 | 14.04709 | 11066 ft | 340 kts | 318° |
| 2026-04-29 19:45 | 41.24700 | 14.02669 | 11047 ft | 341 kts | 318° |
| 2026-04-29 19:46 | 41.26504 | 14.00632 | 11060 ft | 341 kts | 319° |
| 2026-04-29 19:46 | 41.28318 | 13.98588 | 11179 ft | 345 kts | 318° |
| 2026-04-29 19:46 | 41.30007 | 13.96328 | 11935 ft | 345 kts | 308° |
| 2026-04-29 19:46 | 41.31407 | 13.93735 | 12675 ft | 345 kts | 304° |
| 2026-04-29 19:47 | 41.32980 | 13.91313 | 13383 ft | 348 kts | 312° |
| 2026-04-29 19:47 | 41.34657 | 13.88987 | 14070 ft | 349 kts | 313° |
| 2026-04-29 19:47 | 41.36347 | 13.86651 | 14745 ft | 351 kts | 313° |
| 2026-04-29 19:47 | 41.38024 | 13.84330 | 15365 ft | 353 kts | 312° |
| 2026-04-29 19:48 | 41.39733 | 13.81961 | 15977 ft | 356 kts | 312° |
| 2026-04-29 19:48 | 41.40892 | 13.80355 | 16381 ft | 357 kts | 312° |
| 2026-04-29 19:48 | 41.43180 | 13.77182 | 17152 ft | 360 kts | 312° |
| 2026-04-29 19:48 | 41.44920 | 13.74764 | 17725 ft | 362 kts | 312° |
| 2026-04-29 19:49 | 41.46668 | 13.72328 | 18307 ft | 365 kts | 312° |
| 2026-04-29 19:49 | 41.48425 | 13.69877 | 18878 ft | 367 kts | 312° |
| 2026-04-29 19:49 | 41.50197 | 13.67411 | 19447 ft | 370 kts | 312° |
| 2026-04-29 19:49 | 41.51984 | 13.64924 | 19910 ft | 372 kts | 312° |
| 2026-04-29 19:50 | 41.53774 | 13.62427 | 20034 ft | 375 kts | 312° |
| 2026-04-29 19:50 | 41.55603 | 13.59873 | 20054 ft | 384 kts | 312° |
| 2026-04-29 19:50 | 41.57455 | 13.57285 | 20063 ft | 386 kts | 312° |
| 2026-04-29 19:50 | 41.59312 | 13.54683 | 20063 ft | 387 kts | 312° |
| 2026-04-29 19:51 | 41.61168 | 13.52083 | 20063 ft | 387 kts | 312° |
| 2026-04-29 19:51 | 41.63027 | 13.49480 | 20061 ft | 387 kts | 312° |
| 2026-04-29 19:51 | 41.64887 | 13.46873 | 20053 ft | 387 kts | 312° |
| 2026-04-29 19:51 | 41.66742 | 13.44269 | 20054 ft | 387 kts | 312° |
| 2026-04-29 19:52 | 41.68596 | 13.41663 | 20054 ft | 387 kts | 312° |
| 2026-04-29 19:52 | 41.70452 | 13.39051 | 20031 ft | 385 kts | 312° |
| 2026-04-29 19:52 | 41.72269 | 13.36491 | 19777 ft | 374 kts | 312° |
| 2026-04-29 19:52 | 41.74032 | 13.34000 | 19529 ft | 363 kts | 311° |
| 2026-04-29 19:53 | 41.75733 | 13.31570 | 19275 ft | 352 kts | 311° |
| 2026-04-29 19:53 | 41.77374 | 13.29198 | 19025 ft | 343 kts | 311° |
| 2026-04-29 19:53 | 41.78970 | 13.26876 | 18778 ft | 334 kts | 311° |
| 2026-04-29 19:53 | 41.80527 | 13.24612 | 18525 ft | 326 kts | 311° |
| 2026-04-29 19:54 | 41.83529 | 13.20256 | 18051 ft | 313 kts | 311° |
| 2026-04-29 19:54 | 41.85008 | 13.18107 | 17641 ft | 313 kts | 311° |
| 2026-04-29 19:54 | 41.86481 | 13.15970 | 17256 ft | 311 kts | 311° |
| 2026-04-29 19:55 | 41.87951 | 13.13842 | 16867 ft | 310 kts | 311° |
| 2026-04-29 19:55 | 41.89413 | 13.11724 | 16503 ft | 309 kts | 310° |
| 2026-04-29 19:55 | 41.90623 | 13.09388 | 16042 ft | 303 kts | 294° |
| 2026-04-29 19:55 | 41.91510 | 13.06831 | 15461 ft | 302 kts | 294° |
| 2026-04-29 19:56 | 41.92385 | 13.04277 | 14910 ft | 300 kts | 294° |
| 2026-04-29 19:56 | 41.93250 | 13.01735 | 14348 ft | 299 kts | 294° |
| 2026-04-29 19:56 | 41.94110 | 12.99206 | 13799 ft | 297 kts | 294° |
| 2026-04-29 19:56 | 41.94965 | 12.96693 | 13277 ft | 295 kts | 294° |
| 2026-04-29 19:57 | 41.95813 | 12.94192 | 12736 ft | 293 kts | 293° |
| 2026-04-29 19:57 | 41.96371 | 12.92546 | 12382 ft | 292 kts | 293° |
| 2026-04-29 19:57 | 41.97499 | 12.89227 | 11682 ft | 289 kts | 294° |
| 2026-04-29 19:57 | 41.98330 | 12.86784 | 11153 ft | 288 kts | 293° |
| 2026-04-29 19:58 | 41.99158 | 12.84345 | 10723 ft | 283 kts | 293° |
| 2026-04-29 19:58 | 41.99977 | 12.81933 | 10320 ft | 278 kts | 293° |
| 2026-04-29 19:58 | 42.00776 | 12.79577 | 9922 ft | 277 kts | 293° |
| 2026-04-29 19:58 | 42.01577 | 12.77207 | 9537 ft | 279 kts | 293° |
| 2026-04-29 19:59 | 42.02385 | 12.74821 | 9124 ft | 282 kts | 293° |
| 2026-04-29 19:59 | 42.03200 | 12.72413 | 8717 ft | 284 kts | 293° |
| 2026-04-29 19:59 | 42.04021 | 12.69983 | 8310 ft | 286 kts | 293° |
| 2026-04-29 19:59 | 42.04847 | 12.67532 | 7905 ft | 288 kts | 293° |
| 2026-04-29 20:00 | 42.05671 | 12.65080 | 7576 ft | 287 kts | 293° |
| 2026-04-29 20:00 | 42.06495 | 12.62633 | 7254 ft | 285 kts | 293° |
| 2026-04-29 20:00 | 42.07305 | 12.60225 | 7024 ft | 280 kts | 293° |
| 2026-04-29 20:00 | 42.08098 | 12.57876 | 6876 ft | 271 kts | 293° |
| 2026-04-29 20:01 | 42.08783 | 12.55562 | 6756 ft | 261 kts | 279° |
| 2026-04-29 20:01 | 42.08642 | 12.53237 | 6655 ft | 249 kts | 245° |
| 2026-04-29 20:01 | 42.07590 | 12.51431 | 6233 ft | 251 kts | 212° |
| 2026-04-29 20:01 | 42.05968 | 12.50492 | 5754 ft | 258 kts | 199° |
| 2026-04-29 20:02 | 42.04258 | 12.49665 | 5278 ft | 263 kts | 200° |
| 2026-04-29 20:02 | 42.02538 | 12.48834 | 4805 ft | 263 kts | 200° |
| 2026-04-29 20:02 | 42.00816 | 12.47999 | 4321 ft | 262 kts | 200° |
| 2026-04-29 20:02 | 41.99678 | 12.47476 | 4000 ft | 259 kts | 194° |
| 2026-04-29 20:03 | 41.97355 | 12.47535 | 3621 ft | 244 kts | 162° |
| 2026-04-29 20:03 | 41.95853 | 12.48458 | 3372 ft | 232 kts | 153° |
| 2026-04-29 20:03 | 41.94461 | 12.49431 | 3161 ft | 218 kts | 153° |
| 2026-04-29 20:03 | 41.93144 | 12.50345 | 3017 ft | 209 kts | 153° |
| 2026-04-29 20:04 | 41.91874 | 12.51227 | 2792 ft | 199 kts | 153° |
| 2026-04-29 20:04 | 41.90677 | 12.52057 | 2524 ft | 189 kts | 153° |
| 2026-04-29 20:04 | 41.89539 | 12.52844 | 2280 ft | 179 kts | 153° |
| 2026-04-29 20:04 | 41.88468 | 12.53586 | 2061 ft | 166 kts | 154° |
| 2026-04-29 20:05 | 41.87477 | 12.54272 | 1854 ft | 154 kts | 154° |
| 2026-04-29 20:05 | 41.86542 | 12.54919 | 1641 ft | 149 kts | 153° |
| 2026-04-29 20:05 | 41.85639 | 12.55543 | 1448 ft | 143 kts | 152° |
| 2026-04-29 20:05 | 41.84760 | 12.56150 | 1264 ft | 141 kts | 152° |
| 2026-04-29 20:06 | 41.83888 | 12.56752 | 1071 ft | 141 kts | 151° |
| 2026-04-29 20:06 | 41.83011 | 12.57358 | 882 ft | 143 kts | 151° |
| 2026-04-29 20:06 | 41.82125 | 12.57970 | 699 ft | 143 kts | 151° |
| 2026-04-29 20:06 | 41.81239 | 12.58580 | 508 ft | 143 kts | 152° |
| 2026-04-29 20:07 | 41.80355 | 12.59203 | 503 ft | 148 kts | 151° |
| 2026-04-29 20:07 | 41.79447 | 12.59836 | 898 ft | 150 kts | 151° |
| 2026-04-29 20:07 | 41.78489 | 12.60464 | 1362 ft | 157 kts | 157° |
| 2026-04-29 20:07 | 41.77406 | 12.60747 | 1824 ft | 163 kts | 179° |
| 2026-04-29 20:08 | 41.76246 | 12.60464 | 2169 ft | 175 kts | 201° |
| 2026-04-29 20:08 | 41.75540 | 12.59934 | 2502 ft | 177 kts | 220° |
| 2026-04-29 20:08 | 41.74704 | 12.58019 | 2911 ft | 181 kts | 263° |
| 2026-04-29 20:08 | 41.74780 | 12.56385 | 2984 ft | 174 kts | 281° |
| 2026-04-29 20:09 | 41.75055 | 12.54824 | 2999 ft | 171 kts | 291° |
| 2026-04-29 20:09 | 41.75798 | 12.53632 | 3014 ft | 169 kts | 326° |
| 2026-04-29 20:09 | 41.76823 | 12.52849 | 3013 ft | 170 kts | 333° |
| 2026-04-29 20:09 | 41.77882 | 12.52149 | 3009 ft | 170 kts | 334° |
| 2026-04-29 20:10 | 41.78945 | 12.51465 | 3008 ft | 170 kts | 334° |
| 2026-04-29 20:10 | 41.80008 | 12.50781 | 3008 ft | 169 kts | 334° |
| 2026-04-29 20:10 | 41.81071 | 12.50099 | 3003 ft | 170 kts | 334° |
| 2026-04-29 20:10 | 41.82135 | 12.49413 | 3002 ft | 170 kts | 334° |
| 2026-04-29 20:11 | 41.83199 | 12.48728 | 3000 ft | 170 kts | 334° |
| 2026-04-29 20:11 | 41.84262 | 12.48044 | 2986 ft | 170 kts | 334° |
| 2026-04-29 20:11 | 41.85342 | 12.47383 | 2769 ft | 170 kts | 342° |
| 2026-04-29 20:11 | 41.86484 | 12.47482 | 2558 ft | 168 kts | 28° |
| 2026-04-29 20:12 | 41.87291 | 12.48591 | 2373 ft | 170 kts | 58° |
| 2026-04-29 20:12 | 41.87824 | 12.50001 | 2137 ft | 170 kts | 72° |
| 2026-04-29 20:12 | 41.87982 | 12.51527 | 1984 ft | 162 kts | 94° |
| 2026-04-29 20:12 | 41.87737 | 12.52966 | 1873 ft | 158 kts | 115° |
| 2026-04-29 20:13 | 41.87158 | 12.54190 | 1740 ft | 155 kts | 134° |
| 2026-04-29 20:13 | 41.86626 | 12.54819 | 1631 ft | 153 kts | 147° |
| 2026-04-29 20:13 | 41.85417 | 12.55693 | 1399 ft | 143 kts | 152° |
| 2026-04-29 20:13 | 41.84538 | 12.56302 | 1207 ft | 141 kts | 152° |
| 2026-04-29 20:14 | 41.83669 | 12.56905 | 1022 ft | 141 kts | 151° |
| 2026-04-29 20:14 | 41.82793 | 12.57500 | 881 ft | 142 kts | 152° |
| 2026-04-29 20:14 | 41.81911 | 12.58112 | 729 ft | 143 kts | 150° |
| 2026-04-29 20:14 | 41.81031 | 12.58730 | 523 ft | 142 kts | 152° |
| 2026-04-29 20:15 | 41.80171 | 12.59329 | 413 ft | 129 kts | 153° |
| 2026-04-29 20:15 | 41.79551 | 12.59752 | 411 ft | 59 kts | 153° |
| 2026-04-29 20:15 | 41.79309 | 12.59916 | 410 ft | 16 kts | 151° |
| 2026-04-29 20:15 | 41.79227 | 12.59974 | 412 ft | 16 kts | 153° |
| 2026-04-29 20:16 | 41.79114 | 12.60049 | 411 ft | 14 kts | 154° |
| 2026-04-29 20:16 | 41.79046 | 12.60015 | 409 ft | 17 kts | 243° |
| 2026-04-29 20:16 | 41.79023 | 12.59924 | 403 ft | 10 kts | 270° |
| 2026-04-29 20:16 | 41.78992 | 12.59801 | 406 ft | 13 kts | 256° |
| 2026-04-29 20:17 | 41.79052 | 12.59717 | 402 ft | 17 kts | 337° |
| 2026-04-29 20:17 | 41.79174 | 12.59651 | 405 ft | 20 kts | 333° |
| 2026-04-29 20:17 | 41.79258 | 12.59592 | 406 ft | 5 kts | 1° |
| 2026-04-29 20:17 | 41.79283 | 12.59628 | 406 ft | 3 kts | 53° |
| 2026-04-29 20:18 | 41.79289 | 12.59638 | 406 ft | 0 kts | 51° |
| 2026-04-29 20:18 | 41.79290 | 12.59639 | 404 ft | 0 kts | 51° |